createdAt,value
2023-03-04T00:01:15.895Z,33.08
2023-03-04T00:03:42.814Z,33.17
2023-03-04T00:06:09.710Z,32.20
2023-03-04T00:08:36.275Z,32.78
2023-03-04T00:11:02.745Z,34.28
2023-03-04T00:13:29.313Z,34.42
2023-03-04T00:15:55.887Z,32.10
2023-03-04T00:18:22.342Z,33.33
2023-03-04T00:20:49.770Z,34.67
2023-03-04T00:23:16.685Z,32.95
2023-03-04T00:25:43.727Z,33.20
2023-03-04T00:28:10.493Z,32.78
2023-03-04T00:30:37.019Z,32.35
2023-03-04T00:33:03.544Z,32.50
2023-03-04T00:35:30.165Z,35.03
2023-03-04T00:37:56.755Z,34.03
2023-03-04T00:40:23.216Z,34.88
2023-03-04T00:42:49.839Z,34.15
2023-03-04T00:45:16.373Z,34.17
2023-03-04T00:47:42.913Z,33.58
2023-03-04T00:50:10.209Z,32.85
2023-03-04T00:52:36.709Z,35.35
2023-03-04T00:55:03.521Z,33.40
2023-03-04T00:57:29.973Z,34.22
2023-03-04T00:59:56.499Z,32.97
2023-03-04T01:02:23.139Z,32.88
2023-03-04T01:04:49.698Z,33.17
2023-03-04T01:07:16.304Z,34.03
2023-03-04T01:09:42.843Z,34.13
2023-03-04T01:12:09.398Z,32.60
2023-03-04T01:14:35.938Z,33.83
2023-03-04T01:17:02.545Z,33.40
2023-03-04T01:19:29.083Z,32.47
2023-03-04T01:21:55.596Z,33.42
2023-03-04T01:24:22.346Z,33.00
2023-03-04T01:26:48.842Z,31.33
2023-03-04T01:29:15.350Z,31.50
2023-03-04T01:31:41.810Z,32.90
2023-03-04T01:34:09.872Z,31.63
2023-03-04T01:36:36.502Z,32.95
2023-03-04T01:39:03.473Z,34.60
2023-03-04T01:41:29.991Z,34.88
2023-03-04T01:44:00.814Z,34.08
2023-03-04T01:46:27.590Z,32.45
2023-03-04T01:48:54.382Z,33.17
2023-03-04T01:51:22.008Z,32.90
2023-03-04T01:53:54.871Z,32.40
2023-03-04T01:56:28.111Z,34.38
2023-03-04T01:59:15.992Z,33.55
2023-03-04T02:01:48.062Z,34.30
2023-03-04T02:04:16.429Z,32.60
2023-03-04T02:06:43.615Z,34.08
2023-03-04T02:09:10.616Z,32.50
2023-03-04T02:11:37.885Z,34.20
2023-03-04T02:14:05.846Z,34.00
2023-03-04T02:16:32.993Z,34.30
2023-03-04T02:19:00.419Z,33.75
2023-03-04T02:21:33.247Z,33.20
2023-03-04T02:24:24.181Z,33.67
2023-03-04T02:26:50.819Z,31.25
2023-03-04T02:29:18.041Z,31.95
2023-03-04T02:31:49.987Z,35.03
2023-03-04T02:34:18.288Z,32.45
2023-03-04T02:36:46.274Z,33.25
2023-03-04T02:39:33.664Z,31.55
2023-03-04T02:42:01.906Z,31.83
2023-03-04T02:44:31.284Z,33.42
2023-03-04T02:46:59.309Z,31.70
2023-03-04T02:49:28.062Z,31.88
2023-03-04T02:52:07.070Z,32.88
2023-03-04T02:54:34.671Z,31.23
2023-03-04T02:57:07.794Z,33.33
2023-03-04T02:59:35.864Z,32.70
2023-03-04T03:02:02.507Z,32.95
2023-03-04T03:04:29.435Z,34.58
2023-03-04T03:06:56.016Z,33.13
2023-03-04T03:09:23.002Z,32.70
2023-03-04T03:11:49.738Z,32.42
2023-03-04T03:14:16.464Z,33.60
2023-03-04T03:16:43.478Z,32.42
2023-03-04T03:19:10.141Z,35.35
2023-03-04T03:21:36.609Z,33.92
2023-03-04T03:24:03.164Z,32.75
2023-03-04T03:26:29.680Z,33.08
2023-03-04T03:28:56.159Z,32.53
2023-03-04T03:31:22.689Z,32.13
2023-03-04T03:33:49.426Z,34.70
2023-03-04T03:36:15.987Z,32.30
2023-03-04T03:38:42.515Z,31.20
2023-03-04T03:41:09.106Z,33.28
2023-03-04T03:43:35.641Z,34.45
2023-03-04T03:46:02.206Z,32.90
2023-03-04T03:48:28.710Z,31.17
2023-03-04T03:50:55.203Z,33.10
2023-03-04T03:53:21.716Z,31.65
2023-03-04T03:55:48.222Z,31.15
2023-03-04T03:58:14.728Z,29.95
2023-03-04T04:00:41.253Z,28.70
2023-03-04T04:03:08.044Z,29.00
2023-03-04T04:05:34.560Z,29.88
2023-03-04T04:08:01.037Z,27.58
2023-03-04T04:10:27.613Z,27.60
2023-03-04T04:12:54.066Z,29.02
2023-03-04T04:15:20.678Z,29.63
2023-03-04T04:17:47.219Z,30.20
2023-03-04T04:20:13.741Z,29.83
2023-03-04T04:22:40.340Z,29.98
2023-03-04T04:25:08.912Z,28.25
2023-03-04T04:27:35.600Z,28.65
2023-03-04T04:30:02.304Z,28.95
2023-03-04T04:32:28.806Z,29.00
2023-03-04T04:34:55.316Z,27.92
2023-03-04T04:37:21.830Z,26.90
2023-03-04T04:39:48.382Z,28.33
2023-03-04T04:42:14.947Z,26.38
2023-03-04T04:44:41.454Z,27.45
2023-03-04T04:47:09.171Z,26.67
2023-03-04T04:49:35.896Z,25.80
2023-03-04T04:52:02.597Z,28.48
2023-03-04T04:54:29.149Z,27.20
2023-03-04T04:56:55.710Z,29.08
2023-03-04T04:59:22.348Z,27.17
2023-03-04T05:01:48.794Z,25.40
2023-03-04T05:04:15.375Z,27.20
2023-03-04T05:06:42.029Z,27.30
2023-03-04T05:09:08.574Z,26.45
2023-03-04T05:11:35.054Z,24.90
2023-03-04T05:14:01.834Z,27.67
2023-03-04T05:16:28.472Z,25.52
2023-03-04T05:18:54.948Z,25.70
2023-03-04T05:21:21.409Z,24.75
2023-03-04T05:23:47.869Z,24.92
2023-03-04T05:26:17.144Z,23.88
2023-03-04T05:28:44.530Z,24.20
2023-03-04T05:31:11.659Z,24.55
2023-03-04T05:33:38.225Z,24.60
2023-03-04T05:36:06.575Z,26.35
2023-03-04T05:38:33.536Z,23.08
2023-03-04T05:41:02.716Z,24.98
2023-03-04T05:43:31.611Z,23.60
2023-03-04T05:45:58.194Z,27.05
2023-03-04T05:48:24.775Z,24.25
2023-03-04T05:50:59.934Z,24.10
2023-03-04T05:53:26.520Z,25.02
2023-03-04T05:55:53.386Z,23.35
2023-03-04T05:58:20.669Z,26.27
2023-03-04T06:00:47.778Z,23.73
2023-03-04T06:03:23.066Z,23.00
2023-03-04T06:05:49.603Z,22.45
2023-03-04T06:08:18.209Z,23.50
2023-03-04T06:10:45.227Z,23.02
2023-03-04T06:13:11.823Z,23.65
2023-03-04T06:15:39.868Z,23.70
2023-03-04T06:18:07.633Z,23.10
2023-03-04T06:20:34.150Z,23.98
2023-03-04T06:23:00.658Z,23.15
2023-03-04T06:25:28.166Z,21.02
2023-03-04T06:27:55.290Z,22.27
2023-03-04T06:30:22.027Z,23.15
2023-03-04T06:32:48.569Z,21.33
2023-03-04T06:35:16.669Z,22.10
2023-03-04T06:37:43.566Z,24.13
2023-03-04T06:40:11.182Z,22.35
2023-03-04T06:42:37.819Z,22.17
2023-03-04T06:45:05.005Z,21.08
2023-03-04T06:47:31.563Z,21.85
2023-03-04T06:49:58.494Z,21.23
2023-03-04T06:52:25.059Z,22.58
2023-03-04T06:54:51.574Z,20.48
2023-03-04T06:57:18.249Z,22.15
2023-03-04T06:59:44.816Z,20.30
2023-03-04T07:02:14.282Z,21.13
2023-03-04T07:04:41.094Z,20.58
2023-03-04T07:07:07.593Z,21.30
2023-03-04T07:09:34.304Z,20.30
2023-03-04T07:12:01.054Z,20.58
2023-03-04T07:14:28.029Z,21.77
2023-03-04T07:16:54.890Z,22.27
2023-03-04T07:19:21.657Z,21.90
2023-03-04T07:21:48.207Z,22.40
2023-03-04T07:24:14.935Z,22.00
2023-03-04T07:26:41.404Z,22.67
2023-03-04T07:29:07.925Z,20.08
2023-03-04T07:31:35.397Z,21.38
2023-03-04T07:34:05.432Z,22.95
2023-03-04T07:36:33.344Z,21.15
2023-03-04T07:38:59.845Z,19.35
2023-03-04T07:41:28.231Z,19.63
2023-03-04T07:43:56.445Z,19.75
2023-03-04T07:46:23.250Z,19.17
2023-03-04T07:48:49.799Z,19.65
2023-03-04T07:51:19.901Z,19.90
2023-03-04T07:53:49.331Z,19.52
2023-03-04T07:56:19.695Z,20.15
2023-03-04T07:58:46.749Z,20.30
2023-03-04T08:01:15.646Z,18.95
2023-03-04T08:03:42.517Z,19.52
2023-03-04T08:06:11.510Z,19.10
2023-03-04T08:08:38.478Z,18.95
2023-03-04T08:11:10.641Z,20.35
2023-03-04T08:13:37.476Z,18.83
2023-03-04T08:16:04.975Z,19.35
2023-03-04T08:18:31.760Z,21.15
2023-03-04T08:20:58.311Z,20.85
2023-03-04T08:23:25.262Z,23.13
2023-03-04T08:25:51.862Z,21.67
2023-03-04T08:28:18.757Z,21.20
2023-03-04T08:30:45.628Z,20.92
2023-03-04T08:33:12.151Z,20.15
2023-03-04T08:35:40.297Z,20.45
2023-03-04T08:38:07.113Z,21.17
2023-03-04T08:40:33.723Z,20.23
2023-03-04T08:43:00.757Z,21.15
2023-03-04T08:45:27.329Z,21.17
2023-03-04T08:47:53.834Z,20.55
2023-03-04T08:50:22.494Z,21.38
2023-03-04T08:52:49.493Z,21.38
2023-03-04T08:55:16.353Z,19.67
2023-03-04T08:57:42.838Z,21.40
2023-03-04T09:00:10.682Z,20.15
2023-03-04T09:02:37.144Z,20.45
2023-03-04T09:05:04.105Z,19.35
2023-03-04T09:07:30.667Z,19.58
2023-03-04T09:09:57.184Z,21.20
2023-03-04T09:12:23.761Z,20.73
2023-03-04T09:15:04.567Z,22.27
2023-03-04T09:17:35.221Z,21.48
2023-03-04T09:20:04.270Z,20.67
2023-03-04T09:22:31.131Z,22.25
2023-03-04T09:24:57.632Z,21.40
2023-03-04T09:27:24.500Z,22.33
2023-03-04T09:29:51.092Z,21.50
2023-03-04T09:32:17.604Z,21.38
2023-03-04T09:34:44.180Z,21.83
2023-03-04T09:37:10.839Z,22.33
2023-03-04T09:39:37.535Z,21.88
2023-03-04T09:42:06.286Z,20.92
2023-03-04T09:44:40.956Z,21.45
2023-03-04T09:47:12.618Z,21.92
2023-03-04T09:49:42.168Z,21.73
2023-03-04T09:52:42.106Z,21.65
2023-03-04T09:55:28.316Z,21.80
2023-03-04T09:58:07.121Z,23.35
2023-03-04T10:00:42.855Z,24.27
2023-03-04T10:03:12.269Z,24.77
2023-03-04T10:06:00.881Z,23.30
2023-03-04T10:08:45.605Z,25.33
2023-03-04T10:11:21.475Z,25.85
2023-03-04T10:14:01.482Z,25.63
2023-03-04T10:16:34.730Z,24.55
2023-03-04T10:19:13.453Z,25.17
2023-03-04T10:21:44.880Z,24.38
2023-03-04T10:24:14.596Z,25.08
2023-03-04T10:26:45.834Z,25.33
2023-03-04T10:29:18.464Z,24.80
2023-03-04T10:31:46.250Z,22.98
2023-03-04T10:34:14.392Z,24.33
2023-03-04T10:37:05.646Z,24.15
2023-03-04T10:39:35.853Z,27.02
2023-03-04T10:42:07.655Z,24.80
2023-03-04T10:44:35.207Z,25.83
2023-03-04T10:47:02.270Z,24.60
2023-03-04T10:49:29.854Z,25.65
2023-03-04T10:52:21.250Z,25.88
2023-03-04T10:54:52.834Z,23.95
2023-03-04T10:57:21.988Z,23.58
2023-03-04T11:00:00.085Z,23.80
2023-03-04T11:02:36.527Z,23.98
2023-03-04T11:05:18.470Z,23.00
2023-03-04T11:07:57.487Z,22.70
2023-03-04T11:10:31.905Z,23.50
2023-03-04T11:12:58.296Z,23.05
2023-03-04T11:15:29.369Z,21.60
2023-03-04T11:18:12.408Z,20.63
2023-03-04T11:20:49.357Z,23.55
2023-03-04T11:23:23.737Z,22.58
2023-03-04T11:25:58.677Z,21.60
2023-03-04T11:29:05.671Z,22.70
2023-03-04T11:31:40.387Z,22.05
2023-03-04T11:34:30.003Z,22.25
2023-03-04T11:37:03.599Z,24.02
2023-03-04T11:39:35.789Z,24.20
2023-03-04T11:42:13.103Z,22.90
2023-03-04T11:44:41.510Z,24.70
2023-03-04T11:47:45.333Z,23.55
2023-03-04T11:50:21.066Z,24.05
2023-03-04T11:53:23.835Z,25.08
2023-03-04T11:56:27.344Z,24.15
2023-03-04T11:59:27.930Z,26.05
2023-03-04T12:02:17.724Z,25.38
2023-03-04T12:04:44.223Z,23.80
2023-03-04T12:07:41.950Z,24.10
2023-03-04T12:10:37.095Z,23.17
2023-03-04T12:13:22.026Z,23.42
2023-03-04T12:16:13.054Z,21.92
2023-03-04T12:19:05.020Z,20.67
2023-03-04T12:21:46.375Z,20.42
2023-03-04T12:24:21.995Z,22.30
2023-03-04T12:27:40.981Z,21.60
2023-03-04T12:30:26.976Z,20.15
2023-03-04T12:33:06.605Z,21.83
2023-03-04T12:35:47.235Z,21.65
2023-03-04T12:38:19.873Z,21.52
2023-03-04T12:40:52.939Z,23.17
2023-03-04T12:43:44.976Z,21.30
2023-03-04T12:46:26.301Z,20.50
2023-03-04T12:49:35.706Z,20.58
2023-03-04T12:52:43.443Z,19.55
2023-03-04T12:55:17.287Z,20.17
2023-03-04T12:57:43.992Z,20.25
2023-03-04T13:00:13.087Z,21.63
2023-03-04T13:02:52.707Z,20.08
2023-03-04T13:05:46.917Z,20.40
2023-03-04T13:08:31.425Z,19.73
2023-03-04T13:11:03.586Z,19.75
2023-03-04T13:13:34.515Z,18.45
2023-03-04T13:16:11.495Z,18.55
2023-03-04T13:18:40.886Z,18.55
2023-03-04T13:21:20.872Z,17.05
2023-03-04T13:23:47.506Z,18.80
2023-03-04T13:26:28.372Z,16.85
2023-03-04T13:29:08.762Z,17.50
2023-03-04T13:32:05.526Z,17.90
2023-03-04T13:34:53.987Z,18.15
2023-03-04T13:37:30.070Z,18.50
2023-03-04T13:40:18.201Z,16.17
2023-03-04T13:42:45.056Z,17.08
2023-03-04T13:45:36.059Z,17.38
2023-03-04T13:48:08.156Z,16.85
2023-03-04T13:50:39.286Z,17.42
2023-03-04T13:53:37.961Z,19.75
2023-03-04T13:56:40.858Z,18.08
2023-03-04T13:59:07.292Z,16.52
2023-03-04T14:01:41.456Z,17.92
2023-03-04T14:04:38.773Z,18.73
2023-03-04T14:07:21.849Z,18.73
2023-03-04T14:09:56.259Z,18.30
2023-03-04T14:12:23.243Z,19.00
2023-03-04T14:14:53.987Z,20.30
2023-03-04T14:17:33.637Z,18.77
2023-03-04T14:20:01.133Z,19.05
2023-03-04T14:22:33.804Z,18.58
2023-03-04T14:25:19.140Z,19.88
2023-03-04T14:27:47.098Z,19.05
2023-03-04T14:30:39.186Z,18.75
2023-03-04T14:33:13.967Z,19.10
2023-03-04T14:35:50.106Z,19.63
2023-03-04T14:38:42.646Z,19.83
2023-03-04T14:41:18.662Z,19.05
2023-03-04T14:44:08.043Z,19.02
2023-03-04T14:46:40.343Z,20.25
2023-03-04T14:49:10.741Z,19.10
2023-03-04T14:51:39.698Z,17.63
2023-03-04T14:54:06.717Z,15.43
2023-03-04T14:56:35.850Z,16.90
2023-03-04T14:59:02.598Z,18.20
2023-03-04T15:01:35.397Z,18.25
2023-03-04T15:04:03.521Z,15.65
2023-03-04T15:06:35.500Z,19.10
2023-03-04T15:09:08.282Z,19.17
2023-03-04T15:11:52.495Z,18.77
2023-03-04T15:14:52.051Z,18.23
2023-03-04T15:17:38.503Z,18.00
2023-03-04T15:20:08.031Z,17.85
2023-03-04T15:23:07.350Z,17.95
2023-03-04T15:25:35.203Z,19.50
2023-03-04T15:28:03.066Z,19.10
2023-03-04T15:30:34.373Z,19.17
2023-03-04T15:33:01.079Z,16.13
2023-03-04T15:35:30.438Z,16.65
2023-03-04T15:37:57.742Z,17.35
2023-03-04T15:40:26.508Z,17.80
2023-03-04T15:42:54.757Z,16.42
2023-03-04T15:45:24.576Z,19.75
2023-03-04T15:47:51.066Z,16.17
2023-03-04T15:50:19.196Z,16.55
2023-03-04T15:52:46.117Z,15.88
2023-03-04T15:55:18.746Z,16.58
2023-03-04T15:57:52.486Z,18.33
2023-03-04T16:00:19.471Z,15.73
2023-03-04T16:02:46.394Z,17.02
2023-03-04T16:05:12.970Z,16.02
2023-03-04T16:07:42.803Z,15.77
2023-03-04T16:10:20.044Z,16.23
2023-03-04T16:12:46.772Z,16.92
2023-03-04T16:15:16.581Z,17.95
2023-03-04T16:17:45.778Z,18.50
2023-03-04T16:20:14.626Z,17.77
2023-03-04T16:22:43.758Z,16.50
2023-03-04T16:25:12.906Z,17.05
2023-03-04T16:27:40.820Z,16.55
2023-03-04T16:30:19.610Z,17.80
2023-03-04T16:32:46.165Z,17.70
2023-03-04T16:35:13.999Z,17.20
2023-03-04T16:37:41.486Z,17.67
2023-03-04T16:40:12.398Z,16.45
2023-03-04T16:42:40.118Z,17.23
2023-03-04T16:45:10.493Z,18.75
2023-03-04T16:47:37.239Z,18.67
2023-03-04T16:50:04.055Z,20.75
2023-03-04T16:52:33.317Z,20.90
2023-03-04T16:55:00.428Z,19.52
2023-03-04T16:57:28.699Z,19.73
2023-03-04T16:59:55.481Z,20.48
2023-03-04T17:02:24.489Z,20.88
2023-03-04T17:04:51.123Z,20.20
2023-03-04T17:07:17.868Z,20.58
2023-03-04T17:09:45.414Z,20.17
2023-03-04T17:12:12.582Z,19.45
2023-03-04T17:14:42.229Z,21.48
2023-03-04T17:17:08.902Z,21.17
2023-03-04T17:19:35.540Z,23.10
2023-03-04T17:22:02.617Z,24.35
2023-03-04T17:24:29.625Z,26.33
2023-03-04T17:26:56.274Z,26.05
2023-03-04T17:29:23.294Z,28.88
2023-03-04T17:31:49.768Z,27.77
2023-03-04T17:34:18.054Z,26.17
2023-03-04T17:36:44.611Z,25.77
2023-03-04T17:39:11.576Z,25.77
2023-03-04T17:41:38.069Z,25.67
2023-03-04T17:44:05.907Z,25.45
2023-03-04T17:46:32.467Z,24.40
2023-03-04T17:48:59.527Z,25.58
2023-03-04T17:51:37.588Z,25.15
2023-03-04T17:54:05.903Z,26.67
2023-03-04T17:56:33.586Z,26.98
2023-03-04T17:59:04.048Z,26.27
2023-03-04T18:01:30.535Z,26.98
2023-03-04T18:03:56.993Z,27.77
2023-03-04T18:06:25.168Z,27.30
2023-03-04T18:08:52.990Z,27.08
2023-03-04T18:11:21.465Z,26.90
2023-03-04T18:13:48.847Z,27.38
2023-03-04T18:16:18.855Z,29.55
2023-03-04T18:18:45.750Z,29.50
2023-03-04T18:21:13.602Z,25.90
2023-03-04T18:23:40.170Z,28.13
2023-03-04T18:26:06.825Z,29.50
2023-03-04T18:28:33.535Z,28.15
2023-03-04T18:31:01.143Z,29.17
2023-03-04T18:33:29.389Z,28.75
2023-03-04T18:36:00.937Z,28.10
2023-03-04T18:38:28.019Z,27.05
2023-03-04T18:40:59.056Z,27.17
2023-03-04T18:43:26.712Z,25.77
2023-03-04T18:46:30.836Z,26.92
2023-03-04T18:49:01.883Z,26.88
2023-03-04T18:51:28.624Z,26.80
2023-03-04T18:53:55.144Z,28.05
2023-03-04T18:56:38.195Z,25.48
2023-03-04T18:59:15.230Z,25.65
2023-03-04T19:01:42.032Z,27.95
2023-03-04T19:04:09.357Z,27.23
2023-03-04T19:06:35.967Z,26.88
2023-03-04T19:09:02.625Z,28.08
2023-03-04T19:11:31.482Z,28.13
2023-03-04T19:13:58.039Z,28.35
2023-03-04T19:16:25.271Z,26.42
2023-03-04T19:18:52.306Z,27.92
2023-03-04T19:21:19.406Z,28.73
2023-03-04T19:23:46.056Z,28.83
2023-03-04T19:26:13.737Z,28.15
2023-03-04T19:28:40.291Z,27.35
2023-03-04T19:31:08.315Z,26.77
2023-03-04T19:33:36.818Z,26.42
2023-03-04T19:36:05.540Z,27.50
2023-03-04T19:38:33.527Z,26.50
2023-03-04T19:41:09.058Z,29.10
2023-03-04T19:43:38.609Z,27.67
2023-03-04T19:46:07.497Z,27.73
2023-03-04T19:48:35.475Z,29.40
2023-03-04T19:51:04.491Z,27.33
2023-03-04T19:53:34.631Z,26.92
2023-03-04T19:56:01.541Z,26.58
2023-03-04T19:58:28.095Z,28.45
2023-03-04T20:00:56.107Z,29.05
2023-03-04T20:03:24.067Z,28.38
2023-03-04T20:05:50.598Z,31.70
2023-03-04T20:08:17.166Z,27.65
2023-03-04T20:10:43.741Z,26.75
2023-03-04T20:13:10.365Z,27.30
2023-03-04T20:15:37.551Z,25.58
2023-03-04T20:18:04.565Z,26.00
2023-03-04T20:20:31.129Z,28.00
2023-03-04T20:22:58.072Z,29.42
2023-03-04T20:25:25.287Z,30.30
2023-03-04T20:27:51.830Z,30.58
2023-03-04T20:30:18.696Z,26.10
2023-03-04T20:32:45.444Z,26.25
2023-03-04T20:35:15.007Z,26.35
2023-03-04T20:37:42.598Z,26.25
2023-03-04T20:40:13.010Z,26.65
2023-03-04T20:42:39.527Z,27.73
2023-03-04T20:45:06.935Z,27.98
2023-03-04T20:47:33.457Z,26.90
2023-03-04T20:49:59.969Z,27.00
2023-03-04T20:52:26.537Z,26.98
2023-03-04T20:54:53.049Z,26.50
2023-03-04T20:57:19.701Z,27.40
2023-03-04T20:59:46.159Z,27.13
2023-03-04T21:02:15.654Z,28.60
2023-03-04T21:04:42.264Z,25.85
2023-03-04T21:07:09.164Z,27.48
2023-03-04T21:09:35.781Z,27.33
2023-03-04T21:12:02.342Z,28.75
2023-03-04T21:14:30.994Z,27.77
2023-03-04T21:17:00.117Z,26.92
2023-03-04T21:19:30.031Z,26.10
2023-03-04T21:21:58.070Z,25.63
2023-03-04T21:24:28.283Z,26.90
2023-03-04T21:26:54.887Z,26.08
2023-03-04T21:29:23.928Z,28.60
2023-03-04T21:32:13.040Z,27.17
2023-03-04T21:34:52.029Z,25.75
2023-03-04T21:37:20.601Z,25.67
2023-03-04T21:39:47.286Z,25.50
2023-03-04T21:42:13.994Z,24.95
2023-03-04T21:44:49.014Z,24.98
2023-03-04T21:47:16.985Z,24.40
2023-03-04T21:49:43.544Z,26.00
2023-03-04T21:52:10.024Z,26.50
2023-03-04T21:54:36.593Z,26.02
2023-03-04T21:57:03.331Z,23.73
2023-03-04T21:59:29.875Z,24.67
2023-03-04T22:01:56.495Z,26.30
2023-03-04T22:04:23.070Z,22.77
2023-03-04T22:06:49.625Z,22.85
2023-03-04T22:09:16.152Z,24.08
2023-03-04T22:11:42.739Z,24.42
2023-03-04T22:14:10.648Z,24.58
2023-03-04T22:16:48.993Z,24.70
2023-03-04T22:19:19.524Z,23.98
2023-03-04T22:21:46.179Z,24.42
2023-03-04T22:24:12.671Z,27.15
2023-03-04T22:26:39.146Z,24.67
2023-03-04T22:29:06.386Z,24.17
2023-03-04T22:31:35.112Z,23.10
2023-03-04T22:34:07.665Z,24.95
2023-03-04T22:36:36.744Z,24.52
2023-03-04T22:39:06.317Z,23.90
2023-03-04T22:41:33.328Z,23.00
2023-03-04T22:44:00.336Z,24.75
2023-03-04T22:46:30.602Z,24.48
2023-03-04T22:48:59.483Z,23.73
2023-03-04T22:51:26.493Z,21.55
2023-03-04T22:53:53.178Z,22.67
2023-03-04T22:56:20.405Z,22.80
2023-03-04T22:58:47.965Z,20.08
2023-03-04T23:01:16.483Z,20.63
2023-03-04T23:03:45.554Z,23.48
2023-03-04T23:06:14.955Z,24.17
2023-03-04T23:08:44.146Z,22.70
2023-03-04T23:11:13.629Z,23.67
2023-03-04T23:13:41.233Z,20.90
2023-03-04T23:16:10.429Z,21.05
2023-03-04T23:18:39.090Z,20.88
2023-03-04T23:21:11.000Z,21.38
2023-03-04T23:23:38.923Z,21.23
2023-03-04T23:26:05.967Z,19.67
2023-03-04T23:28:32.619Z,20.67
2023-03-04T23:30:59.139Z,21.75
2023-03-04T23:33:25.765Z,19.23
2023-03-04T23:35:52.335Z,21.13
2023-03-04T23:38:18.903Z,21.63
2023-03-04T23:40:45.391Z,18.50
2023-03-04T23:43:11.876Z,19.55
2023-03-04T23:45:38.342Z,20.77
2023-03-04T23:48:05.148Z,20.85
2023-03-04T23:50:32.211Z,21.27
2023-03-04T23:52:58.722Z,18.08
2023-03-04T23:55:25.269Z,21.40
2023-03-04T23:57:51.713Z,19.45
